createdAt,value
2018-03-06T00:02:18.230Z,35.22
2018-03-06T00:04:45.920Z,38.13
2018-03-06T00:07:13.651Z,38.30
2018-03-06T00:09:42.389Z,37.60
2018-03-06T00:12:12.070Z,34.95
2018-03-06T00:14:40.838Z,35.05
2018-03-06T00:17:08.752Z,34.97
2018-03-06T00:19:36.289Z,35.63
2018-03-06T00:22:06.261Z,36.67
2018-03-06T00:24:35.569Z,35.85
2018-03-06T00:27:03.129Z,34.88
2018-03-06T00:29:30.853Z,35.80
2018-03-06T00:31:59.281Z,34.22
2018-03-06T00:34:28.941Z,32.88
2018-03-06T00:36:56.656Z,34.50
2018-03-06T00:39:24.384Z,33.17
2018-03-06T00:41:52.116Z,36.25
2018-03-06T00:44:19.828Z,35.67
2018-03-06T00:46:49.091Z,35.00
2018-03-06T00:49:16.805Z,34.95
2018-03-06T00:51:45.313Z,34.83
2018-03-06T00:54:12.858Z,35.55
2018-03-06T00:56:40.562Z,34.88
2018-03-06T00:59:08.103Z,35.72
2018-03-06T01:01:36.020Z,32.88
2018-03-06T01:04:03.593Z,36.97
2018-03-06T01:06:31.313Z,33.45
2018-03-06T01:08:59.372Z,32.58
2018-03-06T01:11:27.322Z,34.47
2018-03-06T01:13:55.041Z,34.55
2018-03-06T01:16:22.622Z,35.25
2018-03-06T01:18:50.344Z,35.17
2018-03-06T01:21:18.074Z,33.65
2018-03-06T01:23:46.949Z,33.60
2018-03-06T01:26:15.292Z,36.25
2018-03-06T01:28:43.887Z,33.92
2018-03-06T01:31:11.426Z,36.05
2018-03-06T01:33:39.162Z,35.33
2018-03-06T01:36:06.877Z,37.47
2018-03-06T01:38:34.589Z,34.10
2018-03-06T01:41:04.324Z,36.08
2018-03-06T01:43:33.251Z,34.75
2018-03-06T01:46:00.985Z,36.40
2018-03-06T01:48:28.521Z,35.40
2018-03-06T01:50:57.359Z,35.20
2018-03-06T01:53:24.886Z,34.83
2018-03-06T01:55:52.618Z,33.83
2018-03-06T01:58:20.389Z,36.75
2018-03-06T02:00:47.917Z,35.63
2018-03-06T02:03:15.871Z,36.58
2018-03-06T02:05:43.595Z,36.47
2018-03-06T02:08:11.486Z,38.63
2018-03-06T02:10:39.352Z,34.83
2018-03-06T02:13:07.087Z,35.22
2018-03-06T02:15:35.158Z,37.35
2018-03-06T02:18:02.741Z,34.28
2018-03-06T02:20:30.451Z,36.72
2018-03-06T02:22:58.193Z,35.00
2018-03-06T02:25:25.909Z,35.22
2018-03-06T02:27:53.621Z,34.88
2018-03-06T02:30:21.144Z,35.95
2018-03-06T02:32:48.863Z,37.13
2018-03-06T02:35:16.580Z,33.80
2018-03-06T02:37:48.689Z,35.40
2018-03-06T02:40:16.220Z,35.15
2018-03-06T02:42:43.934Z,35.90
2018-03-06T02:45:13.376Z,36.25
2018-03-06T02:50:13.740Z,38.45
2018-03-06T02:52:41.477Z,35.33
2018-03-06T02:55:09.032Z,37.40
2018-03-06T02:57:38.436Z,35.92
2018-03-06T03:00:06.989Z,34.97
2018-03-06T03:02:36.410Z,36.08
2018-03-06T03:05:04.149Z,37.35
2018-03-06T03:07:31.674Z,37.33
2018-03-06T03:09:59.395Z,36.42
2018-03-06T03:12:27.141Z,34.85
2018-03-06T03:14:56.490Z,37.28
2018-03-06T03:17:24.205Z,34.88
2018-03-06T03:19:51.735Z,39.03
2018-03-06T03:22:19.266Z,39.25
2018-03-06T03:24:48.561Z,36.75
2018-03-06T03:27:16.276Z,39.88
2018-03-06T03:29:43.804Z,35.22
2018-03-06T03:32:11.835Z,37.35
2018-03-06T03:34:39.559Z,36.40
2018-03-06T03:37:07.259Z,38.03
2018-03-06T03:39:36.901Z,39.25
2018-03-06T03:42:04.189Z,35.03
2018-03-06T03:44:31.906Z,37.20
2018-03-06T03:46:59.630Z,36.33
2018-03-06T03:49:27.152Z,36.80
2018-03-06T03:51:54.873Z,37.65
2018-03-06T03:54:22.585Z,36.00
2018-03-06T03:56:50.292Z,36.30
2018-03-06T03:59:17.748Z,37.10
2018-03-06T04:01:45.452Z,39.60
2018-03-06T04:04:12.982Z,35.58
2018-03-06T04:06:40.709Z,38.08
2018-03-06T04:09:08.409Z,36.25
2018-03-06T04:11:35.945Z,36.85
2018-03-06T04:14:03.712Z,34.38
2018-03-06T04:16:31.437Z,36.10
2018-03-06T04:18:59.200Z,33.90
2018-03-06T04:21:26.778Z,35.65
2018-03-06T04:23:54.493Z,36.03
2018-03-06T04:26:22.022Z,34.60
2018-03-06T04:28:49.734Z,34.67
2018-03-06T04:31:17.260Z,33.90
2018-03-06T04:33:44.978Z,36.50
2018-03-06T04:36:12.694Z,35.83
2018-03-06T04:38:40.407Z,36.20
2018-03-06T04:41:09.118Z,37.22
2018-03-06T04:43:36.824Z,36.42
2018-03-06T04:46:04.352Z,35.30
2018-03-06T04:48:32.054Z,36.47
2018-03-06T04:50:59.788Z,37.53
2018-03-06T04:53:27.509Z,38.15
2018-03-06T04:55:55.028Z,35.67
2018-03-06T04:58:22.738Z,35.28
2018-03-06T05:00:50.604Z,38.40
2018-03-06T05:03:18.317Z,35.22
2018-03-06T05:05:45.851Z,38.58
2018-03-06T05:08:13.560Z,34.60
2018-03-06T05:10:41.270Z,37.20
2018-03-06T05:13:08.990Z,36.97
2018-03-06T05:15:36.701Z,37.85
2018-03-06T05:18:04.418Z,37.17
2018-03-06T05:20:31.946Z,37.55
2018-03-06T05:22:59.668Z,37.05
2018-03-06T05:25:27.372Z,38.05
2018-03-06T05:27:55.077Z,36.90
2018-03-06T05:30:22.609Z,36.67
2018-03-06T05:32:50.325Z,36.05
2018-03-06T05:35:18.028Z,37.05
2018-03-06T05:37:45.735Z,35.85
2018-03-06T05:40:13.080Z,36.28
2018-03-06T05:42:41.484Z,37.90
2018-03-06T05:45:09.202Z,36.13
2018-03-06T05:47:36.915Z,36.90
2018-03-06T05:50:04.645Z,36.72
2018-03-06T05:52:32.369Z,36.30
2018-03-06T05:55:00.071Z,37.42
2018-03-06T05:57:27.781Z,35.88
2018-03-06T05:59:56.512Z,39.35
2018-03-06T06:02:26.141Z,36.25
2018-03-06T06:04:53.876Z,35.97
2018-03-06T06:07:21.558Z,38.47
2018-03-06T06:09:50.267Z,35.58
2018-03-06T06:12:19.015Z,36.38
2018-03-06T06:14:46.727Z,37.88
2018-03-06T06:17:14.240Z,35.90
2018-03-06T06:19:41.761Z,36.35
2018-03-06T06:22:10.309Z,37.05
2018-03-06T06:24:37.862Z,36.95
2018-03-06T06:27:05.566Z,36.58
2018-03-06T06:29:33.285Z,39.13
2018-03-06T06:32:00.805Z,38.55
2018-03-06T06:34:28.348Z,40.47
2018-03-06T06:36:57.801Z,37.33
2018-03-06T06:39:25.315Z,39.47
2018-03-06T06:41:52.829Z,36.05
2018-03-06T06:44:20.347Z,37.15
2018-03-06T06:46:47.906Z,37.90
2018-03-06T06:49:15.565Z,36.30
2018-03-06T06:51:43.080Z,36.17
2018-03-06T06:54:10.610Z,35.83
2018-03-06T06:56:39.128Z,36.42
2018-03-06T06:59:06.641Z,35.95
2018-03-06T07:01:34.157Z,35.97
2018-03-06T07:04:01.666Z,35.63
2018-03-06T07:06:29.169Z,35.35
2018-03-06T07:08:56.685Z,37.20
2018-03-06T07:11:24.198Z,37.65
2018-03-06T07:13:51.714Z,38.05
2018-03-06T07:16:20.242Z,39.45
2018-03-06T07:18:47.757Z,36.72
2018-03-06T07:21:15.303Z,34.65
2018-03-06T07:23:43.031Z,35.97
2018-03-06T07:26:10.706Z,37.70
2018-03-06T07:28:38.230Z,44.90
2018-03-06T07:31:05.737Z,37.35
2018-03-06T07:33:33.252Z,35.80
2018-03-06T07:36:01.768Z,37.40
2018-03-06T07:38:29.277Z,37.20
2018-03-06T07:40:56.789Z,37.28
2018-03-06T07:43:24.305Z,36.63
2018-03-06T07:45:51.814Z,37.38
2018-03-06T07:48:19.328Z,35.53
2018-03-06T07:50:46.840Z,36.08
2018-03-06T07:53:14.349Z,35.38
2018-03-06T07:55:41.855Z,37.15
2018-03-06T07:58:09.364Z,37.33
2018-03-06T08:00:36.931Z,36.67
2018-03-06T08:03:04.596Z,38.78
2018-03-06T08:05:32.105Z,39.45
2018-03-06T08:07:59.608Z,38.33
2018-03-06T08:10:27.112Z,37.75
2018-03-06T08:12:54.621Z,38.40
2018-03-06T08:15:24.050Z,36.70
2018-03-06T08:17:51.598Z,39.17
2018-03-06T08:20:19.276Z,40.17
2018-03-06T08:22:46.782Z,38.70
2018-03-06T08:25:14.289Z,39.45
2018-03-06T08:27:41.805Z,43.80
2018-03-06T08:30:09.322Z,43.90
2018-03-06T08:32:36.852Z,38.92
2018-03-06T08:35:05.401Z,38.22
2018-03-06T08:37:32.924Z,39.33
2018-03-06T08:40:00.437Z,42.55
2018-03-06T08:42:27.954Z,42.97
2018-03-06T08:44:55.474Z,39.65
2018-03-06T08:47:23.021Z,41.88
2018-03-06T08:49:50.344Z,43.90
2018-03-06T08:52:17.856Z,42.30
2018-03-06T08:54:45.366Z,42.10
2018-03-06T08:57:12.878Z,43.60
2018-03-06T08:59:40.394Z,43.25
2018-03-06T09:02:07.910Z,40.58
2018-03-06T09:04:35.416Z,38.60
2018-03-06T09:07:02.921Z,38.90
2018-03-06T09:09:30.444Z,41.37
2018-03-06T09:11:57.968Z,41.10
2018-03-06T09:14:25.481Z,43.22
2018-03-06T09:16:52.984Z,43.83
2018-03-06T09:19:20.490Z,42.62
2018-03-06T09:21:48.007Z,41.28
2018-03-06T09:24:15.509Z,41.40
2018-03-06T09:26:43.024Z,40.40
2018-03-06T09:29:11.377Z,43.40
2018-03-06T09:31:38.893Z,41.15
2018-03-06T09:34:06.400Z,41.08
2018-03-06T09:36:33.913Z,40.92
2018-03-06T09:39:01.428Z,41.92
2018-03-06T09:41:28.936Z,40.20
2018-03-06T09:43:56.447Z,41.75
2018-03-06T09:46:24.966Z,39.92
2018-03-06T09:48:53.440Z,39.63
2018-03-06T09:51:21.990Z,41.72
2018-03-06T09:53:49.493Z,41.33
2018-03-06T09:56:16.998Z,41.28
2018-03-06T09:58:44.516Z,44.13
2018-03-06T10:01:23.185Z,44.40
2018-03-06T10:03:50.691Z,42.20
2018-03-06T10:06:18.204Z,43.42
2018-03-06T10:08:45.713Z,42.03
2018-03-06T10:11:13.228Z,42.92
2018-03-06T10:13:40.741Z,43.20
2018-03-06T10:16:08.265Z,43.00
2018-03-06T10:18:35.789Z,42.13
2018-03-06T10:21:03.299Z,43.75
2018-03-06T10:23:31.016Z,42.58
2018-03-06T10:25:58.521Z,44.22
2018-03-06T10:28:26.072Z,44.30
2018-03-06T10:30:53.580Z,43.78
2018-03-06T10:33:21.091Z,46.20
2018-03-06T10:35:48.630Z,42.97
2018-03-06T10:38:16.140Z,41.17
2018-03-06T10:40:43.661Z,43.25
2018-03-06T10:43:11.178Z,41.03
2018-03-06T10:45:39.671Z,42.80
2018-03-06T10:48:08.168Z,43.40
2018-03-06T10:50:35.681Z,43.60
2018-03-06T10:53:03.189Z,42.05
2018-03-06T10:55:30.700Z,44.65
2018-03-06T10:57:58.220Z,43.28
2018-03-06T11:00:31.270Z,45.10
2018-03-06T11:02:58.592Z,43.75
2018-03-06T11:05:26.102Z,44.15
2018-03-06T11:07:53.613Z,43.63
2018-03-06T11:10:21.119Z,45.78
2018-03-06T11:12:48.642Z,45.20
2018-03-06T11:15:16.166Z,42.65
2018-03-06T11:17:43.680Z,41.65
2018-03-06T11:20:11.193Z,47.00
2018-03-06T11:22:38.704Z,47.90
2018-03-06T11:25:06.235Z,43.40
2018-03-06T11:27:33.750Z,45.70
2018-03-06T11:30:01.258Z,46.22
2018-03-06T11:32:28.765Z,50.45
2018-03-06T11:34:56.343Z,50.33
2018-03-06T11:37:23.859Z,50.20
2018-03-06T11:39:51.372Z,52.25
2018-03-06T11:42:18.890Z,50.53
2018-03-06T11:44:46.398Z,49.28
2018-03-06T11:47:13.918Z,49.35
2018-03-06T11:49:42.429Z,49.70
2018-03-06T11:52:09.941Z,47.90
2018-03-06T11:54:37.457Z,48.78
2018-03-06T11:57:04.995Z,46.90
2018-03-06T11:59:32.509Z,48.03
2018-03-06T12:02:00.065Z,48.22
2018-03-06T12:04:27.743Z,49.75
2018-03-06T12:06:57.207Z,48.20
2018-03-06T12:09:26.819Z,48.80
2018-03-06T12:11:54.345Z,50.33
2018-03-06T12:14:21.864Z,47.28
2018-03-06T12:16:49.394Z,49.05
2018-03-06T12:19:16.908Z,49.17
2018-03-06T12:21:44.416Z,48.20
2018-03-06T12:24:11.929Z,48.80
2018-03-06T12:26:39.463Z,48.85
2018-03-06T12:29:06.977Z,51.17
2018-03-06T12:31:34.497Z,49.90
2018-03-06T12:34:02.016Z,51.70
2018-03-06T12:36:29.527Z,47.38
2018-03-06T12:38:57.041Z,49.38
2018-03-06T12:41:24.552Z,50.03
2018-03-06T12:43:52.060Z,47.45
2018-03-06T12:46:19.635Z,48.22
2018-03-06T12:48:48.276Z,47.72
2018-03-06T12:51:15.785Z,48.20
2018-03-06T12:53:43.296Z,48.22
2018-03-06T12:56:10.833Z,49.22
2018-03-06T12:58:38.337Z,49.67
2018-03-06T13:01:05.860Z,49.78
2018-03-06T13:03:33.368Z,48.55
2018-03-06T13:06:01.884Z,50.35
2018-03-06T13:08:29.397Z,47.45
2018-03-06T13:10:56.913Z,51.50
2018-03-06T13:13:24.426Z,47.10
2018-03-06T13:15:51.957Z,47.47
2018-03-06T13:18:21.384Z,49.30
2018-03-06T13:20:48.933Z,48.30
2018-03-06T13:23:16.444Z,49.10
2018-03-06T13:25:43.974Z,48.60
2018-03-06T13:28:11.501Z,49.00
2018-03-06T13:30:39.026Z,48.87
2018-03-06T13:33:07.541Z,49.70
2018-03-06T13:35:35.065Z,47.65
2018-03-06T13:38:02.608Z,48.83
2018-03-06T13:40:30.118Z,48.87
2018-03-06T13:42:57.634Z,46.45
2018-03-06T13:45:25.148Z,48.90
2018-03-06T13:47:52.681Z,50.65
2018-03-06T13:50:20.946Z,49.13
2018-03-06T13:52:48.491Z,47.30
2018-03-06T13:55:17.962Z,48.83
2018-03-06T13:57:47.405Z,51.85
2018-03-06T14:00:14.940Z,49.95
2018-03-06T14:02:42.448Z,51.75
2018-03-06T14:05:09.952Z,50.55
2018-03-06T14:07:37.475Z,51.15
2018-03-06T14:10:04.990Z,49.63
2018-03-06T14:12:32.507Z,47.60
2018-03-06T14:15:00.025Z,49.28
2018-03-06T14:17:27.554Z,51.25
2018-03-06T14:19:57.045Z,51.00
2018-03-06T14:22:24.566Z,49.65
2018-03-06T14:24:52.081Z,51.42
2018-03-06T14:27:19.593Z,50.70
2018-03-06T14:29:47.113Z,55.90
2018-03-06T14:32:14.681Z,47.78
2018-03-06T14:34:42.348Z,49.08
2018-03-06T14:37:09.865Z,51.50
2018-03-06T14:39:38.229Z,50.63
2018-03-06T14:42:05.738Z,44.78
2018-03-06T14:44:34.045Z,48.72
2018-03-06T14:47:01.561Z,46.63
2018-03-06T14:49:29.071Z,45.08
2018-03-06T14:51:56.583Z,45.33
2018-03-06T14:54:24.103Z,43.60
2018-03-06T14:56:51.604Z,44.75
2018-03-06T14:59:19.129Z,48.30
2018-03-06T15:01:46.636Z,42.30
2018-03-06T15:04:14.154Z,40.85
2018-03-06T15:06:43.601Z,44.42
2018-03-06T15:09:11.118Z,41.90
2018-03-06T15:11:38.636Z,40.95
2018-03-06T15:14:06.152Z,43.17
2018-03-06T15:16:33.680Z,36.10
2018-03-06T15:19:03.149Z,39.50
2018-03-06T15:21:31.060Z,40.70
2018-03-06T15:23:58.578Z,38.55
2018-03-06T15:26:26.108Z,40.12
2018-03-06T15:28:53.644Z,39.78
2018-03-06T15:31:21.156Z,38.08
2018-03-06T15:33:48.663Z,44.00
2018-03-06T15:36:16.205Z,50.10
2018-03-06T15:38:43.717Z,47.35
2018-03-06T15:41:11.252Z,50.03
2018-03-06T15:43:39.777Z,47.45
2018-03-06T15:46:07.292Z,48.42
2018-03-06T15:48:34.816Z,45.95
2018-03-06T15:51:02.331Z,37.53
2018-03-06T15:53:29.856Z,39.28
2018-03-06T15:55:57.369Z,44.95
2018-03-06T15:58:28.800Z,40.15
2018-03-06T16:00:56.121Z,43.65
2018-03-06T16:03:23.627Z,39.25
2018-03-06T16:05:51.129Z,41.08
2018-03-06T16:08:18.636Z,45.35
2018-03-06T16:10:46.150Z,46.47
2018-03-06T16:13:13.668Z,45.33
2018-03-06T16:15:41.187Z,43.15
2018-03-06T16:18:09.685Z,45.15
2018-03-06T16:20:37.176Z,45.83
2018-03-06T16:23:04.680Z,47.20
2018-03-06T16:25:32.189Z,48.03
2018-03-06T16:27:59.709Z,46.75
2018-03-06T16:30:27.257Z,47.65
2018-03-06T16:32:54.765Z,48.10
2018-03-06T16:35:22.291Z,48.10
2018-03-06T16:37:49.816Z,46.20
2018-03-06T16:40:17.338Z,48.53
2018-03-06T16:42:44.863Z,47.08
2018-03-06T16:45:12.476Z,43.22
2018-03-06T16:47:41.904Z,54.15
2018-03-06T16:50:09.455Z,43.50
2018-03-06T16:52:36.985Z,43.22
2018-03-06T16:55:04.538Z,45.22
2018-03-06T16:57:32.051Z,40.35
2018-03-06T16:59:59.389Z,41.97
2018-03-06T17:02:27.914Z,43.40
2018-03-06T17:04:55.249Z,43.17
2018-03-06T17:07:23.938Z,41.30
2018-03-06T17:09:51.850Z,42.85
2018-03-06T17:12:21.298Z,47.72
2018-03-06T17:14:48.811Z,63.83
2018-03-06T17:17:16.337Z,78.65
2018-03-06T17:19:43.855Z,64.15
2018-03-06T17:22:11.373Z,54.67
2018-03-06T17:24:38.892Z,44.42
2018-03-06T17:27:06.413Z,44.45
2018-03-06T17:29:33.916Z,39.60
2018-03-06T17:32:01.438Z,50.03
2018-03-06T17:34:28.960Z,50.55
2018-03-06T17:36:56.481Z,40.58
2018-03-06T17:39:23.982Z,39.78
2018-03-06T17:41:51.497Z,36.75
2018-03-06T17:44:18.997Z,40.85
2018-03-06T17:46:47.507Z,37.33
2018-03-06T17:49:15.014Z,33.17
2018-03-06T17:51:43.512Z,35.13
2018-03-06T17:54:10.831Z,35.83
2018-03-06T17:56:38.408Z,32.10
2018-03-06T17:59:05.924Z,30.35
2018-03-06T18:01:33.424Z,32.53
2018-03-06T18:04:00.928Z,31.52
2018-03-06T18:06:28.435Z,33.45
2018-03-06T18:08:55.946Z,27.20
2018-03-06T18:11:23.459Z,27.60
2018-03-06T18:13:50.980Z,30.50
2018-03-06T18:16:18.536Z,31.75
2018-03-06T18:18:47.047Z,31.25
2018-03-06T18:21:14.565Z,28.65
2018-03-06T18:23:42.077Z,24.90
2018-03-06T18:26:09.614Z,22.75
2018-03-06T18:28:37.120Z,21.80
2018-03-06T18:31:04.633Z,20.27
2018-03-06T18:33:32.150Z,21.00
2018-03-06T18:35:59.651Z,19.05
2018-03-06T18:38:27.188Z,18.33
2018-03-06T18:40:54.709Z,16.90
2018-03-06T18:43:22.220Z,22.92
2018-03-06T18:45:49.728Z,16.65
2018-03-06T18:48:17.235Z,16.00
2018-03-06T18:50:50.405Z,18.95
2018-03-06T18:53:17.996Z,18.58
2018-03-06T18:55:45.508Z,18.50
2018-03-06T18:58:13.017Z,18.65
2018-03-06T19:00:55.205Z,18.25
2018-03-06T19:03:28.401Z,17.27
2018-03-06T19:06:01.489Z,17.75
2018-03-06T19:08:29.200Z,16.45
2018-03-06T19:10:56.733Z,16.77
2018-03-06T19:13:24.236Z,17.85
2018-03-06T19:15:53.703Z,15.90
2018-03-06T19:18:22.251Z,16.65
2018-03-06T19:20:49.770Z,16.23
2018-03-06T19:23:17.294Z,15.45
2018-03-06T19:25:44.804Z,16.73
2018-03-06T19:28:12.321Z,15.18
2018-03-06T19:30:39.838Z,17.30
2018-03-06T19:33:07.361Z,15.88
2018-03-06T19:35:34.882Z,17.75
2018-03-06T19:38:02.393Z,18.02
2018-03-06T19:40:29.927Z,17.00
2018-03-06T19:42:57.440Z,16.35
2018-03-06T19:45:24.944Z,18.20
2018-03-06T19:47:52.450Z,16.60
2018-03-06T19:50:19.964Z,16.62
2018-03-06T19:52:47.477Z,17.05
2018-03-06T19:55:14.993Z,16.92
2018-03-06T19:57:42.318Z,17.70
2018-03-06T20:00:09.848Z,119.87
2018-03-06T20:02:37.357Z,21.35
2018-03-06T20:05:04.860Z,17.73
2018-03-06T20:07:32.387Z,18.62
2018-03-06T20:09:59.910Z,16.75
2018-03-06T20:12:27.412Z,20.02
2018-03-06T20:15:00.301Z,19.90
2018-03-06T20:17:27.820Z,14.90
2018-03-06T20:19:55.368Z,15.70
2018-03-06T20:22:22.871Z,14.93
2018-03-06T20:24:55.793Z,17.30
2018-03-06T20:27:23.292Z,15.70
2018-03-06T20:29:50.796Z,17.75
2018-03-06T20:32:23.789Z,19.23
2018-03-06T20:34:51.292Z,19.20
2018-03-06T20:37:18.808Z,26.67
2018-03-06T20:39:51.864Z,55.10
2018-03-06T20:42:19.182Z,52.05
2018-03-06T20:44:48.632Z,28.75
2018-03-06T20:47:21.569Z,30.50
2018-03-06T20:49:49.087Z,20.30
2018-03-06T20:52:16.616Z,17.55
2018-03-06T20:54:49.706Z,21.27
2018-03-06T20:57:17.949Z,32.90
2018-03-06T20:59:45.472Z,23.40
2018-03-06T21:02:12.997Z,22.17
2018-03-06T21:04:40.519Z,17.30
2018-03-06T21:07:08.025Z,19.80
2018-03-06T21:09:35.564Z,19.70
2018-03-06T21:12:03.068Z,20.17
2018-03-06T21:14:30.611Z,17.95
2018-03-06T21:16:58.116Z,18.20
2018-03-06T21:19:27.632Z,17.45
2018-03-06T21:21:55.273Z,16.92
2018-03-06T21:24:23.801Z,18.62
2018-03-06T21:26:51.315Z,17.25
2018-03-06T21:29:18.642Z,23.23
2018-03-06T21:31:46.159Z,18.62
2018-03-06T21:34:13.687Z,16.40
2018-03-06T21:36:41.202Z,15.80
2018-03-06T21:39:08.732Z,14.57
2018-03-06T21:41:36.226Z,18.73
2018-03-06T21:44:03.733Z,15.82
2018-03-06T21:46:31.257Z,15.13
2018-03-06T21:48:58.764Z,15.88
2018-03-06T21:51:26.269Z,17.70
2018-03-06T21:53:53.782Z,16.33
2018-03-06T21:56:21.311Z,15.55
2018-03-06T21:58:48.834Z,16.42
2018-03-06T22:01:16.101Z,15.60
2018-03-06T22:03:43.612Z,16.37
2018-03-06T22:06:11.134Z,17.95
2018-03-06T22:08:38.659Z,17.27
2018-03-06T22:11:06.163Z,18.08
2018-03-06T22:13:33.670Z,16.15
2018-03-06T22:16:01.470Z,15.48
2018-03-06T22:18:29.005Z,17.80
2018-03-06T22:20:56.527Z,16.87
2018-03-06T22:23:24.041Z,16.73
2018-03-06T22:25:51.584Z,17.25
2018-03-06T22:28:19.108Z,18.23
2018-03-06T22:30:46.625Z,18.02
2018-03-06T22:33:16.062Z,16.60
2018-03-06T22:35:43.589Z,18.42
2018-03-06T22:38:11.112Z,17.60
2018-03-06T22:40:38.637Z,17.98
2018-03-06T22:43:06.164Z,19.10
2018-03-06T22:45:33.707Z,16.55
2018-03-06T22:48:03.165Z,16.73
2018-03-06T22:50:30.699Z,17.52
2018-03-06T22:52:58.203Z,18.65
2018-03-06T22:55:26.220Z,17.48
2018-03-06T22:57:53.740Z,18.25
2018-03-06T23:00:21.244Z,17.90
2018-03-06T23:02:48.781Z,17.80
2018-03-06T23:05:16.464Z,15.95
2018-03-06T23:07:43.974Z,17.48
2018-03-06T23:10:11.474Z,17.27
2018-03-06T23:12:38.985Z,17.05
2018-03-06T23:15:06.493Z,17.95
2018-03-06T23:17:34.001Z,16.87
2018-03-06T23:20:01.529Z,18.62
2018-03-06T23:22:29.068Z,19.08
2018-03-06T23:24:57.406Z,16.62
2018-03-06T23:27:26.853Z,15.02
2018-03-06T23:29:55.348Z,16.80
2018-03-06T23:32:22.854Z,15.88
2018-03-06T23:34:50.370Z,16.08
2018-03-06T23:37:17.891Z,18.12
2018-03-06T23:39:45.421Z,16.92
2018-03-06T23:42:12.922Z,16.92
2018-03-06T23:44:40.427Z,15.50
2018-03-06T23:47:07.931Z,16.92
2018-03-06T23:49:37.377Z,16.90
2018-03-06T23:52:04.893Z,18.65
2018-03-06T23:54:32.403Z,15.27
2018-03-06T23:56:59.917Z,16.67
2018-03-06T23:59:27.430Z,17.80
